sensor_id;sensor_type;location;lat;lon;timestamp;pressure;altitude;pressure_sealevel;temperature
74536;BMP180;63013;51.104;-115.370;2023-03-01T00:01:40;85625.00;;;22.90
74536;BMP180;63013;51.104;-115.370;2023-03-01T00:04:08;85629.80;;;22.90
74536;BMP180;63013;51.104;-115.370;2023-03-01T00:06:35;85632.20;;;22.90
74536;BMP180;63013;51.104;-115.370;2023-03-01T00:09:03;85638.40;;;22.90
74536;BMP180;63013;51.104;-115.370;2023-03-01T00:11:32;85640.80;;;22.90
74536;BMP180;63013;51.104;-115.370;2023-03-01T00:14:01;85645.80;;;22.82
74536;BMP180;63013;51.104;-115.370;2023-03-01T00:16:38;85651.20;;;22.80
74536;BMP180;63013;51.104;-115.370;2023-03-01T00:19:09;85654.40;;;22.80
74536;BMP180;63013;51.104;-115.370;2023-03-01T00:21:38;85659.20;;;22.80
74536;BMP180;63013;51.104;-115.370;2023-03-01T00:24:05;85663.80;;;22.80
74536;BMP180;63013;51.104;-115.370;2023-03-01T00:26:36;85667.40;;;22.80
74536;BMP180;63013;51.104;-115.370;2023-03-01T00:29:04;85667.40;;;22.80
74536;BMP180;63013;51.104;-115.370;2023-03-01T00:31:33;85669.00;;;22.84
74536;BMP180;63013;51.104;-115.370;2023-03-01T00:34:03;85672.00;;;22.88
74536;BMP180;63013;51.104;-115.370;2023-03-01T00:36:36;85679.40;;;22.90
74536;BMP180;63013;51.104;-115.370;2023-03-01T00:39:07;85681.60;;;22.90
74536;BMP180;63013;51.104;-115.370;2023-03-01T00:41:36;85683.80;;;22.90
74536;BMP180;63013;51.104;-115.370;2023-03-01T00:44:03;85688.00;;;22.90
74536;BMP180;63013;51.104;-115.370;2023-03-01T00:46:31;85694.00;;;22.90
74536;BMP180;63013;51.104;-115.370;2023-03-01T00:48:58;85695.60;;;22.90
74536;BMP180;63013;51.104;-115.370;2023-03-01T00:51:28;85707.80;;;22.86
74536;BMP180;63013;51.104;-115.370;2023-03-01T00:53:59;85712.00;;;22.84
74536;BMP180;63013;51.104;-115.370;2023-03-01T00:56:27;85717.80;;;22.80
74536;BMP180;63013;51.104;-115.370;2023-03-01T00:58:55;85724.20;;;22.80
74536;BMP180;63013;51.104;-115.370;2023-03-01T01:01:29;85729.00;;;22.80
74536;BMP180;63013;51.104;-115.370;2023-03-01T01:04:09;85726.20;;;22.80
74536;BMP180;63013;51.104;-115.370;2023-03-01T01:06:40;85737.60;;;22.80
74536;BMP180;63013;51.104;-115.370;2023-03-01T01:09:15;85740.40;;;22.80
74536;BMP180;63013;51.104;-115.370;2023-03-01T01:11:48;85745.80;;;22.70
74536;BMP180;63013;51.104;-115.370;2023-03-01T01:14:17;85748.60;;;22.70
74536;BMP180;63013;51.104;-115.370;2023-03-01T01:16:45;85754.00;;;22.70
74536;BMP180;63013;51.104;-115.370;2023-03-01T01:19:12;85759.80;;;22.70
74536;BMP180;63013;51.104;-115.370;2023-03-01T01:21:40;85757.00;;;22.70
74536;BMP180;63013;51.104;-115.370;2023-03-01T01:24:09;85762.40;;;22.70
74536;BMP180;63013;51.104;-115.370;2023-03-01T01:26:37;85768.00;;;22.70
74536;BMP180;63013;51.104;-115.370;2023-03-01T01:29:06;85777.80;;;22.70
74536;BMP180;63013;51.104;-115.370;2023-03-01T01:31:35;85779.00;;;22.70
74536;BMP180;63013;51.104;-115.370;2023-03-01T01:34:05;85783.60;;;22.70
74536;BMP180;63013;51.104;-115.370;2023-03-01T01:36:35;85782.60;;;22.68
74536;BMP180;63013;51.104;-115.370;2023-03-01T01:39:02;85791.60;;;22.60
74536;BMP180;63013;51.104;-115.370;2023-03-01T01:41:31;85798.80;;;22.60
74536;BMP180;63013;51.104;-115.370;2023-03-01T01:44:22;85800.60;;;22.60
74536;BMP180;63013;51.104;-115.370;2023-03-01T01:47:16;85799.60;;;22.60
74536;BMP180;63013;51.104;-115.370;2023-03-01T01:49:53;85799.60;;;22.60
74536;BMP180;63013;51.104;-115.370;2023-03-01T01:55:14;85810.40;;;22.60
74536;BMP180;63013;51.104;-115.370;2023-03-01T01:57:46;85816.00;;;22.50
74536;BMP180;63013;51.104;-115.370;2023-03-01T02:00:21;85822.20;;;22.50
74536;BMP180;63013;51.104;-115.370;2023-03-01T02:02:55;85822.60;;;22.50
74536;BMP180;63013;51.104;-115.370;2023-03-01T02:06:00;85826.60;;;22.50
74536;BMP180;63013;51.104;-115.370;2023-03-01T02:08:38;85831.80;;;22.50
74536;BMP180;63013;51.104;-115.370;2023-03-01T02:11:10;85829.60;;;22.42
74536;BMP180;63013;51.104;-115.370;2023-03-01T02:13:38;85833.00;;;22.40
74536;BMP180;63013;51.104;-115.370;2023-03-01T02:16:13;85834.20;;;22.40
74536;BMP180;63013;51.104;-115.370;2023-03-01T02:18:42;85843.20;;;22.40
74536;BMP180;63013;51.104;-115.370;2023-03-01T02:23:54;85845.20;;;22.38
74536;BMP180;63013;51.104;-115.370;2023-03-01T02:26:48;85851.60;;;22.32
74536;BMP180;63013;51.104;-115.370;2023-03-01T02:29:16;85853.00;;;22.30
74536;BMP180;63013;51.104;-115.370;2023-03-01T02:31:55;85859.00;;;22.30
74536;BMP180;63013;51.104;-115.370;2023-03-01T02:34:25;85864.20;;;22.30
74536;BMP180;63013;51.104;-115.370;2023-03-01T02:37:18;85868.20;;;22.28
74536;BMP180;63013;51.104;-115.370;2023-03-01T02:40:03;85872.80;;;22.20
74536;BMP180;63013;51.104;-115.370;2023-03-01T02:42:38;85876.80;;;22.20
74536;BMP180;63013;51.104;-115.370;2023-03-01T02:45:10;85876.80;;;22.20
74536;BMP180;63013;51.104;-115.370;2023-03-01T02:47:38;85875.00;;;22.20
74536;BMP180;63013;51.104;-115.370;2023-03-01T02:53:40;85877.40;;;22.10
74536;BMP180;63013;51.104;-115.370;2023-03-01T02:56:12;85886.00;;;22.10
74536;BMP180;63013;51.104;-115.370;2023-03-01T02:58:42;85885.80;;;22.10
74536;BMP180;63013;51.104;-115.370;2023-03-01T03:01:12;85890.40;;;22.06
74536;BMP180;63013;51.104;-115.370;2023-03-01T03:03:42;85892.40;;;22.00
74536;BMP180;63013;51.104;-115.370;2023-03-01T03:06:09;85887.60;;;22.00
74536;BMP180;63013;51.104;-115.370;2023-03-01T03:08:36;85895.40;;;22.00
74536;BMP180;63013;51.104;-115.370;2023-03-01T03:11:04;85899.20;;;22.00
74536;BMP180;63013;51.104;-115.370;2023-03-01T03:13:31;85902.00;;;22.00
74536;BMP180;63013;51.104;-115.370;2023-03-01T03:15:59;85901.00;;;21.90
74536;BMP180;63013;51.104;-115.370;2023-03-01T03:18:26;85907.80;;;21.90
74536;BMP180;63013;51.104;-115.370;2023-03-01T03:20:54;85904.80;;;21.90
74536;BMP180;63013;51.104;-115.370;2023-03-01T03:23:22;85910.20;;;21.90
74536;BMP180;63013;51.104;-115.370;2023-03-01T03:25:52;85908.60;;;21.90
74536;BMP180;63013;51.104;-115.370;2023-03-01T03:28:19;85910.40;;;21.90
74536;BMP180;63013;51.104;-115.370;2023-03-01T03:30:47;85913.60;;;21.86
74536;BMP180;63013;51.104;-115.370;2023-03-01T03:33:14;85914.80;;;21.80
74536;BMP180;63013;51.104;-115.370;2023-03-01T03:35:48;85911.60;;;21.80
74536;BMP180;63013;51.104;-115.370;2023-03-01T03:38:21;85911.60;;;21.80
74536;BMP180;63013;51.104;-115.370;2023-03-01T03:41:01;85915.40;;;21.80
74536;BMP180;63013;51.104;-115.370;2023-03-01T03:43:32;85918.40;;;21.80
74536;BMP180;63013;51.104;-115.370;2023-03-01T03:45:59;85921.60;;;21.74
74536;BMP180;63013;51.104;-115.370;2023-03-01T03:48:27;85918.60;;;21.70
74536;BMP180;63013;51.104;-115.370;2023-03-01T03:50:56;85918.20;;;21.70
74536;BMP180;63013;51.104;-115.370;2023-03-01T03:53:26;85917.00;;;21.70
74536;BMP180;63013;51.104;-115.370;2023-03-01T03:56:04;85919.20;;;21.70
74536;BMP180;63013;51.104;-115.370;2023-03-01T03:58:31;85923.00;;;21.68
74536;BMP180;63013;51.104;-115.370;2023-03-01T04:00:59;85922.80;;;21.60
74536;BMP180;63013;51.104;-115.370;2023-03-01T04:03:29;85927.80;;;21.60
74536;BMP180;63013;51.104;-115.370;2023-03-01T04:05:59;85932.20;;;21.60
74536;BMP180;63013;51.104;-115.370;2023-03-01T04:08:30;85936.20;;;21.60
74536;BMP180;63013;51.104;-115.370;2023-03-01T04:11:01;85936.40;;;21.56
74536;BMP180;63013;51.104;-115.370;2023-03-01T04:13:50;85935.60;;;21.50
74536;BMP180;63013;51.104;-115.370;2023-03-01T04:16:20;85940.40;;;21.50
74536;BMP180;63013;51.104;-115.370;2023-03-01T04:18:48;85942.40;;;21.50
74536;BMP180;63013;51.104;-115.370;2023-03-01T04:21:15;85943.00;;;21.50
74536;BMP180;63013;51.104;-115.370;2023-03-01T04:23:42;85945.80;;;21.48
74536;BMP180;63013;51.104;-115.370;2023-03-01T04:26:10;85952.20;;;21.42
74536;BMP180;63013;51.104;-115.370;2023-03-01T04:28:40;85948.40;;;21.40
74536;BMP180;63013;51.104;-115.370;2023-03-01T04:31:15;85949.60;;;21.40
74536;BMP180;63013;51.104;-115.370;2023-03-01T04:33:55;85947.60;;;21.40
74536;BMP180;63013;51.104;-115.370;2023-03-01T04:36:27;85947.00;;;21.40
74536;BMP180;63013;51.104;-115.370;2023-03-01T04:38:56;85950.80;;;21.38
74536;BMP180;63013;51.104;-115.370;2023-03-01T04:41:25;85956.20;;;21.30
74536;BMP180;63013;51.104;-115.370;2023-03-01T04:43:52;85960.00;;;21.30
74536;BMP180;63013;51.104;-115.370;2023-03-01T04:46:20;85962.00;;;21.30
74536;BMP180;63013;51.104;-115.370;2023-03-01T04:48:48;85958.80;;;21.30
74536;BMP180;63013;51.104;-115.370;2023-03-01T04:51:16;85960.20;;;21.30
74536;BMP180;63013;51.104;-115.370;2023-03-01T04:53:45;85963.40;;;21.28
74536;BMP180;63013;51.104;-115.370;2023-03-01T04:56:13;85965.20;;;21.24
74536;BMP180;63013;51.104;-115.370;2023-03-01T04:58:41;85964.40;;;21.20
74536;BMP180;63013;51.104;-115.370;2023-03-01T05:01:12;85967.80;;;21.20
74536;BMP180;63013;51.104;-115.370;2023-03-01T05:03:46;85967.40;;;21.20
74536;BMP180;63013;51.104;-115.370;2023-03-01T05:06:15;85967.60;;;21.20
74536;BMP180;63013;51.104;-115.370;2023-03-01T05:08:44;85965.40;;;21.16
74536;BMP180;63013;51.104;-115.370;2023-03-01T05:11:11;85965.80;;;21.10
74536;BMP180;63013;51.104;-115.370;2023-03-01T05:13:40;85968.20;;;21.10
74536;BMP180;63013;51.104;-115.370;2023-03-01T05:16:11;85969.40;;;21.10
74536;BMP180;63013;51.104;-115.370;2023-03-01T05:18:40;85971.80;;;21.10
74536;BMP180;63013;51.104;-115.370;2023-03-01T05:21:14;85978.20;;;21.04
74536;BMP180;63013;51.104;-115.370;2023-03-01T05:23:45;85981.20;;;21.00
74536;BMP180;63013;51.104;-115.370;2023-03-01T05:26:14;85973.80;;;21.00
74536;BMP180;63013;51.104;-115.370;2023-03-01T05:28:41;85978.00;;;21.00
74536;BMP180;63013;51.104;-115.370;2023-03-01T05:31:09;85979.00;;;21.00
74536;BMP180;63013;51.104;-115.370;2023-03-01T05:33:43;85974.20;;;20.90
74536;BMP180;63013;51.104;-115.370;2023-03-01T05:36:12;85980.20;;;20.90
74536;BMP180;63013;51.104;-115.370;2023-03-01T05:38:39;85977.20;;;20.90
74536;BMP180;63013;51.104;-115.370;2023-03-01T05:41:15;85973.00;;;20.90
74536;BMP180;63013;51.104;-115.370;2023-03-01T05:43:52;85979.80;;;20.90
74536;BMP180;63013;51.104;-115.370;2023-03-01T05:46:20;85981.60;;;20.80
74536;BMP180;63013;51.104;-115.370;2023-03-01T05:48:47;85979.60;;;20.80
74536;BMP180;63013;51.104;-115.370;2023-03-01T05:51:24;85984.20;;;20.80
74536;BMP180;63013;51.104;-115.370;2023-03-01T05:53:51;85987.80;;;20.80
74536;BMP180;63013;51.104;-115.370;2023-03-01T05:56:19;85984.00;;;20.80
74536;BMP180;63013;51.104;-115.370;2023-03-01T05:58:51;85989.20;;;20.76
74536;BMP180;63013;51.104;-115.370;2023-03-01T06:01:22;85989.60;;;20.70
74536;BMP180;63013;51.104;-115.370;2023-03-01T06:03:50;85994.40;;;20.70
74536;BMP180;63013;51.104;-115.370;2023-03-01T06:06:26;86000.00;;;20.70
74536;BMP180;63013;51.104;-115.370;2023-03-01T06:08:53;85999.40;;;20.70
74536;BMP180;63013;51.104;-115.370;2023-03-01T06:11:22;86002.80;;;20.66
74536;BMP180;63013;51.104;-115.370;2023-03-01T06:13:49;86003.20;;;20.60
74536;BMP180;63013;51.104;-115.370;2023-03-01T06:16:20;86007.20;;;20.60
74536;BMP180;63013;51.104;-115.370;2023-03-01T06:18:48;86008.40;;;20.60
74536;BMP180;63013;51.104;-115.370;2023-03-01T06:21:15;86013.60;;;20.60
74536;BMP180;63013;51.104;-115.370;2023-03-01T06:23:52;86016.80;;;20.54
74536;BMP180;63013;51.104;-115.370;2023-03-01T06:26:23;86018.00;;;20.50
74536;BMP180;63013;51.104;-115.370;2023-03-01T06:28:50;86019.40;;;20.50
74536;BMP180;63013;51.104;-115.370;2023-03-01T06:31:17;86021.00;;;20.50
74536;BMP180;63013;51.104;-115.370;2023-03-01T06:33:44;86020.00;;;20.50
74536;BMP180;63013;51.104;-115.370;2023-03-01T06:36:12;86021.60;;;20.48
74536;BMP180;63013;51.104;-115.370;2023-03-01T06:38:39;86018.60;;;20.40
74536;BMP180;63013;51.104;-115.370;2023-03-01T06:41:07;86015.00;;;20.40
74536;BMP180;63013;51.104;-115.370;2023-03-01T06:43:34;86014.80;;;20.40
74536;BMP180;63013;51.104;-115.370;2023-03-01T06:46:05;86014.60;;;20.40
74536;BMP180;63013;51.104;-115.370;2023-03-01T06:48:34;86014.00;;;20.40
74536;BMP180;63013;51.104;-115.370;2023-03-01T06:51:05;86017.80;;;20.30
74536;BMP180;63013;51.104;-115.370;2023-03-01T06:53:32;86016.20;;;20.30
74536;BMP180;63013;51.104;-115.370;2023-03-01T06:56:00;86017.40;;;20.30
74536;BMP180;63013;51.104;-115.370;2023-03-01T06:58:27;86020.60;;;20.30
74536;BMP180;63013;51.104;-115.370;2023-03-01T07:00:54;86022.40;;;20.22
74536;BMP180;63013;51.104;-115.370;2023-03-01T07:03:22;86017.80;;;20.20
74536;BMP180;63013;51.104;-115.370;2023-03-01T07:05:50;86014.60;;;20.20
74536;BMP180;63013;51.104;-115.370;2023-03-01T07:08:20;86007.80;;;20.20
74536;BMP180;63013;51.104;-115.370;2023-03-01T07:10:47;86011.40;;;20.20
74536;BMP180;63013;51.104;-115.370;2023-03-01T07:13:14;86008.60;;;20.20
74536;BMP180;63013;51.104;-115.370;2023-03-01T07:15:42;86008.40;;;20.10
74536;BMP180;63013;51.104;-115.370;2023-03-01T07:18:09;86008.00;;;20.10
74536;BMP180;63013;51.104;-115.370;2023-03-01T07:20:36;86008.80;;;20.10
74536;BMP180;63013;51.104;-115.370;2023-03-01T07:23:06;86008.40;;;20.10
74536;BMP180;63013;51.104;-115.370;2023-03-01T07:25:33;86009.60;;;20.08
74536;BMP180;63013;51.104;-115.370;2023-03-01T07:28:01;86007.40;;;20.00
74536;BMP180;63013;51.104;-115.370;2023-03-01T07:30:28;86007.20;;;20.00
74536;BMP180;63013;51.104;-115.370;2023-03-01T07:32:57;86005.40;;;20.00
74536;BMP180;63013;51.104;-115.370;2023-03-01T07:35:27;86003.60;;;20.00
74536;BMP180;63013;51.104;-115.370;2023-03-01T07:37:55;86004.00;;;19.92
74536;BMP180;63013;51.104;-115.370;2023-03-01T07:40:22;86004.80;;;19.90
74536;BMP180;63013;51.104;-115.370;2023-03-01T07:42:52;85999.40;;;19.90
74536;BMP180;63013;51.104;-115.370;2023-03-01T07:45:21;86005.60;;;19.90
74536;BMP180;63013;51.104;-115.370;2023-03-01T07:47:52;86006.00;;;19.90
74536;BMP180;63013;51.104;-115.370;2023-03-01T07:50:20;86011.20;;;19.86
74536;BMP180;63013;51.104;-115.370;2023-03-01T07:52:50;86009.60;;;19.80
74536;BMP180;63013;51.104;-115.370;2023-03-01T07:55:17;86018.40;;;19.80
74536;BMP180;63013;51.104;-115.370;2023-03-01T07:57:46;86016.40;;;19.80
74536;BMP180;63013;51.104;-115.370;2023-03-01T08:00:13;86016.40;;;19.80
74536;BMP180;63013;51.104;-115.370;2023-03-01T08:02:41;86017.60;;;19.80
74536;BMP180;63013;51.104;-115.370;2023-03-01T08:05:09;86019.60;;;19.72
74536;BMP180;63013;51.104;-115.370;2023-03-01T08:07:37;86018.00;;;19.70
74536;BMP180;63013;51.104;-115.370;2023-03-01T08:10:05;86015.20;;;19.70
74536;BMP180;63013;51.104;-115.370;2023-03-01T08:12:36;86012.00;;;19.70
74536;BMP180;63013;51.104;-115.370;2023-03-01T08:15:04;86013.60;;;19.70
74536;BMP180;63013;51.104;-115.370;2023-03-01T08:17:31;86017.40;;;19.60
74536;BMP180;63013;51.104;-115.370;2023-03-01T08:19:58;86010.40;;;19.60
74536;BMP180;63013;51.104;-115.370;2023-03-01T08:22:25;86012.00;;;19.60
74536;BMP180;63013;51.104;-115.370;2023-03-01T08:24:53;86012.80;;;19.60
74536;BMP180;63013;51.104;-115.370;2023-03-01T08:27:23;86012.40;;;19.60
74536;BMP180;63013;51.104;-115.370;2023-03-01T08:29:50;86013.00;;;19.52
74536;BMP180;63013;51.104;-115.370;2023-03-01T08:32:18;86013.80;;;19.50
74536;BMP180;63013;51.104;-115.370;2023-03-01T08:34:47;86016.00;;;19.50
74536;BMP180;63013;51.104;-115.370;2023-03-01T08:37:14;86017.60;;;19.50
74536;BMP180;63013;51.104;-115.370;2023-03-01T08:39:42;86018.60;;;19.50
74536;BMP180;63013;51.104;-115.370;2023-03-01T08:42:09;86015.80;;;19.48
74536;BMP180;63013;51.104;-115.370;2023-03-01T08:44:36;86010.60;;;19.40
74536;BMP180;63013;51.104;-115.370;2023-03-01T08:47:04;86013.00;;;19.40
74536;BMP180;63013;51.104;-115.370;2023-03-01T08:49:31;86014.40;;;19.40
74536;BMP180;63013;51.104;-115.370;2023-03-01T08:51:59;86018.00;;;19.36
74536;BMP180;63013;51.104;-115.370;2023-03-01T08:54:30;86019.40;;;19.30
74536;BMP180;63013;51.104;-115.370;2023-03-01T08:56:57;86016.20;;;19.30
74536;BMP180;63013;51.104;-115.370;2023-03-01T08:59:28;86010.00;;;19.30
74536;BMP180;63013;51.104;-115.370;2023-03-01T09:01:56;86011.40;;;19.30
74536;BMP180;63013;51.104;-115.370;2023-03-01T09:04:24;86008.80;;;19.26
74536;BMP180;63013;51.104;-115.370;2023-03-01T09:06:51;86006.80;;;19.20
74536;BMP180;63013;51.104;-115.370;2023-03-01T09:09:18;86001.60;;;19.20
74536;BMP180;63013;51.104;-115.370;2023-03-01T09:11:46;86003.40;;;19.20
74536;BMP180;63013;51.104;-115.370;2023-03-01T09:14:16;86003.20;;;19.20
74536;BMP180;63013;51.104;-115.370;2023-03-01T09:16:44;86007.20;;;19.20
74536;BMP180;63013;51.104;-115.370;2023-03-01T09:19:11;86003.60;;;19.10
74536;BMP180;63013;51.104;-115.370;2023-03-01T09:21:39;86004.60;;;19.10
74536;BMP180;63013;51.104;-115.370;2023-03-01T09:24:13;85998.60;;;19.10
74536;BMP180;63013;51.104;-115.370;2023-03-01T09:26:42;86001.60;;;19.10
74536;BMP180;63013;51.104;-115.370;2023-03-01T09:29:13;85998.40;;;19.10
74536;BMP180;63013;51.104;-115.370;2023-03-01T09:31:41;85992.00;;;19.00
74536;BMP180;63013;51.104;-115.370;2023-03-01T09:34:10;85990.00;;;19.00
74536;BMP180;63013;51.104;-115.370;2023-03-01T09:36:37;85987.20;;;19.00
74536;BMP180;63013;51.104;-115.370;2023-03-01T09:39:05;85989.20;;;19.00
74536;BMP180;63013;51.104;-115.370;2023-03-01T09:42:01;85986.60;;;18.96
74536;BMP180;63013;51.104;-115.370;2023-03-01T09:44:50;85986.60;;;18.90
74536;BMP180;63013;51.104;-115.370;2023-03-01T09:47:23;85991.40;;;18.90
74536;BMP180;63013;51.104;-115.370;2023-03-01T09:50:18;85987.00;;;18.90
74536;BMP180;63013;51.104;-115.370;2023-03-01T09:53:21;85988.00;;;18.90
74536;BMP180;63013;51.104;-115.370;2023-03-01T09:59:55;85983.00;;;18.80
74536;BMP180;63013;51.104;-115.370;2023-03-01T10:02:45;85985.60;;;18.80
74536;BMP180;63013;51.104;-115.370;2023-03-01T10:10:52;85981.00;;;18.70
74536;BMP180;63013;51.104;-115.370;2023-03-01T10:13:50;85985.80;;;18.70
74536;BMP180;63013;51.104;-115.370;2023-03-01T10:16:55;85990.20;;;18.70
74536;BMP180;63013;51.104;-115.370;2023-03-01T10:19:49;85990.60;;;18.68
74536;BMP180;63013;51.104;-115.370;2023-03-01T10:22:34;85984.00;;;18.60
74536;BMP180;63013;51.104;-115.370;2023-03-01T10:25:04;85985.80;;;18.60
74536;BMP180;63013;51.104;-115.370;2023-03-01T10:28:05;85988.40;;;18.60
74536;BMP180;63013;51.104;-115.370;2023-03-01T10:30:40;85986.00;;;18.60
74536;BMP180;63013;51.104;-115.370;2023-03-01T10:33:37;85989.20;;;18.50
74536;BMP180;63013;51.104;-115.370;2023-03-01T10:36:06;85992.60;;;18.50
74536;BMP180;63013;51.104;-115.370;2023-03-01T10:38:54;86000.40;;;18.50
74536;BMP180;63013;51.104;-115.370;2023-03-01T10:41:26;85997.80;;;18.50
74536;BMP180;63013;51.104;-115.370;2023-03-01T10:43:58;86000.20;;;18.48
74536;BMP180;63013;51.104;-115.370;2023-03-01T10:46:35;85997.00;;;18.40
74536;BMP180;63013;51.104;-115.370;2023-03-01T10:49:23;85995.20;;;18.40
74536;BMP180;63013;51.104;-115.370;2023-03-01T10:51:53;85989.80;;;18.40
74536;BMP180;63013;51.104;-115.370;2023-03-01T10:54:35;85992.20;;;18.40
74536;BMP180;63013;51.104;-115.370;2023-03-01T10:57:32;85987.80;;;18.40
74536;BMP180;63013;51.104;-115.370;2023-03-01T11:03:12;85996.60;;;18.30
74536;BMP180;63013;51.104;-115.370;2023-03-01T11:06:21;86002.60;;;18.30
74536;BMP180;63013;51.104;-115.370;2023-03-01T11:08:50;86007.20;;;18.30
74536;BMP180;63013;51.104;-115.370;2023-03-01T11:11:30;86009.80;;;18.30
74536;BMP180;63013;51.104;-115.370;2023-03-01T11:14:26;86011.00;;;18.38
74536;BMP180;63013;51.104;-115.370;2023-03-01T11:17:24;86005.60;;;18.40
74536;BMP180;63013;51.104;-115.370;2023-03-01T11:22:54;86003.80;;;18.40
74536;BMP180;63013;51.104;-115.370;2023-03-01T11:25:31;86003.40;;;18.40
74536;BMP180;63013;51.104;-115.370;2023-03-01T11:28:02;86004.80;;;18.40
74536;BMP180;63013;51.104;-115.370;2023-03-01T11:31:03;86004.80;;;18.40
74536;BMP180;63013;51.104;-115.370;2023-03-01T11:36:53;86006.80;;;18.40
74536;BMP180;63013;51.104;-115.370;2023-03-01T11:39:43;86007.20;;;18.38
74536;BMP180;63013;51.104;-115.370;2023-03-01T11:42:30;86004.20;;;18.30
74536;BMP180;63013;51.104;-115.370;2023-03-01T11:45:10;85998.40;;;18.30
74536;BMP180;63013;51.104;-115.370;2023-03-01T11:48:17;86000.20;;;18.30
74536;BMP180;63013;51.104;-115.370;2023-03-01T11:50:50;86000.40;;;18.30
74536;BMP180;63013;51.104;-115.370;2023-03-01T11:56:34;85991.80;;;18.20
74536;BMP180;63013;51.104;-115.370;2023-03-01T12:08:46;86003.40;;;18.14
74536;BMP180;63013;51.104;-115.370;2023-03-01T12:11:53;86005.80;;;18.10
74536;BMP180;63013;51.104;-115.370;2023-03-01T12:14:52;86005.00;;;18.10
74536;BMP180;63013;51.104;-115.370;2023-03-01T12:20:28;85993.80;;;18.10
74536;BMP180;63013;51.104;-115.370;2023-03-01T12:23:25;85990.80;;;18.02
74536;BMP180;63013;51.104;-115.370;2023-03-01T12:41:23;85995.20;;;17.90
74536;BMP180;63013;51.104;-115.370;2023-03-01T12:50:18;85993.40;;;17.82
74536;BMP180;63013;51.104;-115.370;2023-03-01T12:52:53;85993.20;;;17.80
74536;BMP180;63013;51.104;-115.370;2023-03-01T12:56:09;85992.60;;;17.80
74536;BMP180;63013;51.104;-115.370;2023-03-01T12:58:55;85989.80;;;17.80
74536;BMP180;63013;51.104;-115.370;2023-03-01T13:07:23;85988.80;;;17.80
74536;BMP180;63013;51.104;-115.370;2023-03-01T13:15:37;85994.20;;;17.90
74536;BMP180;63013;51.104;-115.370;2023-03-01T13:20:55;85989.40;;;18.00
74536;BMP180;63013;51.104;-115.370;2023-03-01T13:23:26;85991.60;;;18.04
74536;BMP180;63013;51.104;-115.370;2023-03-01T13:26:16;85986.60;;;18.10
74536;BMP180;63013;51.104;-115.370;2023-03-01T13:28:54;85991.60;;;18.10
74536;BMP180;63013;51.104;-115.370;2023-03-01T13:34:03;85997.80;;;18.10
74536;BMP180;63013;51.104;-115.370;2023-03-01T13:39:26;85999.00;;;18.10
74536;BMP180;63013;51.104;-115.370;2023-03-01T13:41:56;85996.40;;;18.10
74536;BMP180;63013;51.104;-115.370;2023-03-01T13:44:36;86002.80;;;18.10
74536;BMP180;63013;51.104;-115.370;2023-03-01T13:49:56;86001.40;;;18.10
74536;BMP180;63013;51.104;-115.370;2023-03-01T13:52:46;86006.00;;;18.10
74536;BMP180;63013;51.104;-115.370;2023-03-01T13:58:27;86000.20;;;18.10
74536;BMP180;63013;51.104;-115.370;2023-03-01T14:03:57;86008.40;;;18.10
74536;BMP180;63013;51.104;-115.370;2023-03-01T14:06:33;86015.80;;;18.10
74536;BMP180;63013;51.104;-115.370;2023-03-01T14:09:27;86016.60;;;18.16
74536;BMP180;63013;51.104;-115.370;2023-03-01T14:12:25;86016.60;;;18.20
74536;BMP180;63013;51.104;-115.370;2023-03-01T14:15:18;86007.80;;;18.20
74536;BMP180;63013;51.104;-115.370;2023-03-01T14:20:45;85993.60;;;18.30
74536;BMP180;63013;51.104;-115.370;2023-03-01T14:23:25;85990.80;;;18.30
74536;BMP180;63013;51.104;-115.370;2023-03-01T14:26:08;85979.00;;;18.40
74536;BMP180;63013;51.104;-115.370;2023-03-01T14:28:38;85977.20;;;18.40
74536;BMP180;63013;51.104;-115.370;2023-03-01T14:31:34;85962.20;;;18.40
74536;BMP180;63013;51.104;-115.370;2023-03-01T14:34:03;85952.20;;;18.46
74536;BMP180;63013;51.104;-115.370;2023-03-01T14:36:33;85945.20;;;18.50
74536;BMP180;63013;51.104;-115.370;2023-03-01T14:39:01;85951.00;;;18.50
74536;BMP180;63013;51.104;-115.370;2023-03-01T14:41:36;85952.20;;;18.60
74536;BMP180;63013;51.104;-115.370;2023-03-01T14:44:14;85937.80;;;18.60
74536;BMP180;63013;51.104;-115.370;2023-03-01T14:46:45;85936.60;;;18.70
74536;BMP180;63013;51.104;-115.370;2023-03-01T14:49:30;85944.80;;;18.70
74536;BMP180;63013;51.104;-115.370;2023-03-01T14:52:07;85938.00;;;18.76
74536;BMP180;63013;51.104;-115.370;2023-03-01T14:54:52;85935.40;;;18.80
74536;BMP180;63013;51.104;-115.370;2023-03-01T14:57:24;85928.80;;;18.82
74536;BMP180;63013;51.104;-115.370;2023-03-01T14:59:55;85920.20;;;18.90
74536;BMP180;63013;51.104;-115.370;2023-03-01T15:02:26;85926.00;;;18.90
74536;BMP180;63013;51.104;-115.370;2023-03-01T15:05:02;85923.00;;;19.00
74536;BMP180;63013;51.104;-115.370;2023-03-01T15:07:40;85916.00;;;19.02
74536;BMP180;63013;51.104;-115.370;2023-03-01T15:10:21;85917.80;;;19.10
74536;BMP180;63013;51.104;-115.370;2023-03-01T15:12:49;85914.40;;;19.10
74536;BMP180;63013;51.104;-115.370;2023-03-01T15:15:41;85911.00;;;19.20
74536;BMP180;63013;51.104;-115.370;2023-03-01T15:18:29;85913.60;;;19.20
74536;BMP180;63013;51.104;-115.370;2023-03-01T15:21:14;85918.20;;;19.30
74536;BMP180;63013;51.104;-115.370;2023-03-01T15:23:47;85926.80;;;19.34
74536;BMP180;63013;51.104;-115.370;2023-03-01T15:28:58;85917.80;;;19.50
74536;BMP180;63013;51.104;-115.370;2023-03-01T15:31:37;85919.40;;;19.50
74536;BMP180;63013;51.104;-115.370;2023-03-01T15:34:24;85915.80;;;19.60
74536;BMP180;63013;51.104;-115.370;2023-03-01T15:36:54;85911.60;;;19.70
74536;BMP180;63013;51.104;-115.370;2023-03-01T15:39:32;85907.20;;;19.70
74536;BMP180;63013;51.104;-115.370;2023-03-01T15:42:13;85898.00;;;19.80
74536;BMP180;63013;51.104;-115.370;2023-03-01T15:44:43;85908.20;;;19.90
74536;BMP180;63013;51.104;-115.370;2023-03-01T15:47:30;85910.80;;;19.90